sensor_id;sensor_type;location;lat;lon;timestamp;P1;durP1;ratioP1;P2;durP2;ratioP2
16826;SDS011;8530;49.540;8.576;2023-09-30T00:01:02;6.53;;;3.90;;
16826;SDS011;8530;49.540;8.576;2023-09-30T00:03:29;7.33;;;3.70;;
16826;SDS011;8530;49.540;8.576;2023-09-30T00:05:57;7.50;;;3.30;;
16826;SDS011;8530;49.540;8.576;2023-09-30T00:08:24;6.40;;;3.50;;
16826;SDS011;8530;49.540;8.576;2023-09-30T00:10:51;6.03;;;3.27;;
16826;SDS011;8530;49.540;8.576;2023-09-30T00:13:19;7.73;;;3.53;;
16826;SDS011;8530;49.540;8.576;2023-09-30T00:15:46;6.23;;;3.57;;
16826;SDS011;8530;49.540;8.576;2023-09-30T00:18:13;8.70;;;4.47;;
16826;SDS011;8530;49.540;8.576;2023-09-30T00:20:40;6.27;;;4.67;;
16826;SDS011;8530;49.540;8.576;2023-09-30T00:23:08;7.23;;;4.67;;
16826;SDS011;8530;49.540;8.576;2023-09-30T00:25:35;9.27;;;5.20;;
16826;SDS011;8530;49.540;8.576;2023-09-30T00:28:03;5.33;;;3.70;;
16826;SDS011;8530;49.540;8.576;2023-09-30T00:30:30;6.73;;;3.90;;
16826;SDS011;8530;49.540;8.576;2023-09-30T00:32:56;8.83;;;3.90;;
16826;SDS011;8530;49.540;8.576;2023-09-30T00:35:23;6.60;;;4.50;;
16826;SDS011;8530;49.540;8.576;2023-09-30T00:37:50;8.10;;;4.60;;
16826;SDS011;8530;49.540;8.576;2023-09-30T00:40:18;7.93;;;4.40;;
16826;SDS011;8530;49.540;8.576;2023-09-30T00:42:45;11.97;;;6.03;;
16826;SDS011;8530;49.540;8.576;2023-09-30T00:45:12;7.83;;;4.40;;
16826;SDS011;8530;49.540;8.576;2023-09-30T00:47:39;9.33;;;4.70;;
16826;SDS011;8530;49.540;8.576;2023-09-30T00:50:07;9.77;;;4.30;;
16826;SDS011;8530;49.540;8.576;2023-09-30T00:52:35;5.73;;;3.60;;
16826;SDS011;8530;49.540;8.576;2023-09-30T00:55:04;8.33;;;4.57;;
16826;SDS011;8530;49.540;8.576;2023-09-30T00:57:34;5.83;;;4.43;;
16826;SDS011;8530;49.540;8.576;2023-09-30T01:00:01;7.97;;;4.53;;
16826;SDS011;8530;49.540;8.576;2023-09-30T01:02:29;6.70;;;4.67;;
16826;SDS011;8530;49.540;8.576;2023-09-30T01:04:56;8.03;;;3.90;;
16826;SDS011;8530;49.540;8.576;2023-09-30T01:07:23;4.70;;;3.80;;
16826;SDS011;8530;49.540;8.576;2023-09-30T01:09:50;9.00;;;4.77;;
16826;SDS011;8530;49.540;8.576;2023-09-30T01:12:17;5.73;;;3.50;;
16826;SDS011;8530;49.540;8.576;2023-09-30T01:14:45;5.73;;;4.03;;
16826;SDS011;8530;49.540;8.576;2023-09-30T01:17:11;8.07;;;4.60;;
16826;SDS011;8530;49.540;8.576;2023-09-30T01:19:39;7.67;;;3.40;;
16826;SDS011;8530;49.540;8.576;2023-09-30T01:22:07;10.00;;;4.20;;
16826;SDS011;8530;49.540;8.576;2023-09-30T01:24:37;6.77;;;4.60;;
16826;SDS011;8530;49.540;8.576;2023-09-30T01:27:05;7.73;;;4.37;;
16826;SDS011;8530;49.540;8.576;2023-09-30T01:29:31;9.60;;;4.20;;
16826;SDS011;8530;49.540;8.576;2023-09-30T01:31:58;7.40;;;3.70;;
16826;SDS011;8530;49.540;8.576;2023-09-30T01:34:25;4.40;;;3.90;;
16826;SDS011;8530;49.540;8.576;2023-09-30T01:36:52;7.37;;;3.80;;
16826;SDS011;8530;49.540;8.576;2023-09-30T01:39:20;7.00;;;4.10;;
16826;SDS011;8530;49.540;8.576;2023-09-30T01:41:48;7.67;;;4.40;;
16826;SDS011;8530;49.540;8.576;2023-09-30T01:44:15;6.33;;;3.70;;
16826;SDS011;8530;49.540;8.576;2023-09-30T01:46:41;5.90;;;3.90;;
16826;SDS011;8530;49.540;8.576;2023-09-30T01:49:08;9.43;;;4.10;;
16826;SDS011;8530;49.540;8.576;2023-09-30T01:51:36;6.83;;;4.20;;
16826;SDS011;8530;49.540;8.576;2023-09-30T01:54:02;5.97;;;3.93;;
16826;SDS011;8530;49.540;8.576;2023-09-30T01:56:31;7.80;;;4.57;;
16826;SDS011;8530;49.540;8.576;2023-09-30T01:58:58;9.13;;;4.23;;
16826;SDS011;8530;49.540;8.576;2023-09-30T02:01:25;7.23;;;4.33;;
16826;SDS011;8530;49.540;8.576;2023-09-30T02:03:52;9.03;;;4.30;;
16826;SDS011;8530;49.540;8.576;2023-09-30T02:06:19;7.33;;;4.83;;
16826;SDS011;8530;49.540;8.576;2023-09-30T02:08:45;12.83;;;5.43;;
16826;SDS011;8530;49.540;8.576;2023-09-30T02:11:12;8.20;;;4.20;;
16826;SDS011;8530;49.540;8.576;2023-09-30T02:13:43;7.73;;;4.03;;
16826;SDS011;8530;49.540;8.576;2023-09-30T02:16:16;11.43;;;5.30;;
16826;SDS011;8530;49.540;8.576;2023-09-30T02:18:45;8.10;;;4.37;;
16826;SDS011;8530;49.540;8.576;2023-09-30T02:21:15;6.60;;;4.33;;
16826;SDS011;8530;49.540;8.576;2023-09-30T02:23:42;9.00;;;4.70;;
16826;SDS011;8530;49.540;8.576;2023-09-30T02:26:12;6.73;;;4.50;;
16826;SDS011;8530;49.540;8.576;2023-09-30T02:28:39;9.33;;;4.63;;
16826;SDS011;8530;49.540;8.576;2023-09-30T02:31:07;7.10;;;4.40;;
16826;SDS011;8530;49.540;8.576;2023-09-30T02:33:34;7.67;;;5.73;;
16826;SDS011;8530;49.540;8.576;2023-09-30T02:36:02;8.70;;;4.03;;
16826;SDS011;8530;49.540;8.576;2023-09-30T02:38:30;6.30;;;4.80;;
16826;SDS011;8530;49.540;8.576;2023-09-30T02:40:57;9.43;;;4.90;;
16826;SDS011;8530;49.540;8.576;2023-09-30T02:43:24;10.47;;;5.33;;
16826;SDS011;8530;49.540;8.576;2023-09-30T02:45:51;15.00;;;6.10;;
16826;SDS011;8530;49.540;8.576;2023-09-30T02:48:19;4.70;;;3.93;;
16826;SDS011;8530;49.540;8.576;2023-09-30T02:50:45;5.80;;;5.20;;
16826;SDS011;8530;49.540;8.576;2023-09-30T02:53:12;5.33;;;4.27;;
16826;SDS011;8530;49.540;8.576;2023-09-30T02:55:39;14.47;;;5.30;;
16826;SDS011;8530;49.540;8.576;2023-09-30T02:58:06;8.77;;;5.27;;
16826;SDS011;8530;49.540;8.576;2023-09-30T03:00:34;10.10;;;5.80;;
16826;SDS011;8530;49.540;8.576;2023-09-30T03:06:24;8.30;;;5.70;;
16826;SDS011;8530;49.540;8.576;2023-09-30T03:08:51;7.33;;;5.77;;
16826;SDS011;8530;49.540;8.576;2023-09-30T03:11:18;17.37;;;6.47;;
16826;SDS011;8530;49.540;8.576;2023-09-30T03:13:45;10.33;;;5.87;;
16826;SDS011;8530;49.540;8.576;2023-09-30T03:16:13;9.40;;;5.57;;
16826;SDS011;8530;49.540;8.576;2023-09-30T03:18:39;7.47;;;6.33;;
16826;SDS011;8530;49.540;8.576;2023-09-30T03:21:12;12.83;;;5.87;;
16826;SDS011;8530;49.540;8.576;2023-09-30T03:23:41;8.90;;;6.80;;
16826;SDS011;8530;49.540;8.576;2023-09-30T03:26:09;9.40;;;6.40;;
16826;SDS011;8530;49.540;8.576;2023-09-30T03:28:35;7.30;;;5.57;;
16826;SDS011;8530;49.540;8.576;2023-09-30T03:31:02;11.67;;;7.30;;
16826;SDS011;8530;49.540;8.576;2023-09-30T03:33:30;13.27;;;7.63;;
16826;SDS011;8530;49.540;8.576;2023-09-30T03:35:57;7.43;;;6.60;;
16826;SDS011;8530;49.540;8.576;2023-09-30T03:38:25;9.23;;;6.73;;
16826;SDS011;8530;49.540;8.576;2023-09-30T03:40:53;9.43;;;7.13;;
16826;SDS011;8530;49.540;8.576;2023-09-30T03:43:20;6.07;;;5.47;;
16826;SDS011;8530;49.540;8.576;2023-09-30T03:45:48;12.27;;;8.47;;
16826;SDS011;8530;49.540;8.576;2023-09-30T03:48:15;10.77;;;7.60;;
16826;SDS011;8530;49.540;8.576;2023-09-30T03:50:43;9.60;;;7.10;;
16826;SDS011;8530;49.540;8.576;2023-09-30T03:53:10;11.50;;;8.30;;
16826;SDS011;8530;49.540;8.576;2023-09-30T03:55:37;11.20;;;7.77;;
16826;SDS011;8530;49.540;8.576;2023-09-30T03:58:05;16.47;;;8.60;;
16826;SDS011;8530;49.540;8.576;2023-09-30T04:00:32;17.70;;;8.97;;
16826;SDS011;8530;49.540;8.576;2023-09-30T04:03:00;10.03;;;8.77;;
16826;SDS011;8530;49.540;8.576;2023-09-30T04:05:27;10.80;;;8.13;;
16826;SDS011;8530;49.540;8.576;2023-09-30T04:07:57;14.07;;;9.90;;
16826;SDS011;8530;49.540;8.576;2023-09-30T04:10:23;9.27;;;7.87;;
16826;SDS011;8530;49.540;8.576;2023-09-30T04:12:50;12.70;;;8.93;;
16826;SDS011;8530;49.540;8.576;2023-09-30T04:15:18;17.20;;;9.13;;
16826;SDS011;8530;49.540;8.576;2023-09-30T04:17:45;15.13;;;9.10;;
16826;SDS011;8530;49.540;8.576;2023-09-30T04:20:12;17.50;;;8.90;;
16826;SDS011;8530;49.540;8.576;2023-09-30T04:22:45;13.50;;;8.50;;
16826;SDS011;8530;49.540;8.576;2023-09-30T04:25:13;17.03;;;8.27;;
16826;SDS011;8530;49.540;8.576;2023-09-30T04:27:41;19.37;;;9.40;;
16826;SDS011;8530;49.540;8.576;2023-09-30T04:30:12;10.37;;;9.37;;
16826;SDS011;8530;49.540;8.576;2023-09-30T04:32:41;9.73;;;7.37;;
16826;SDS011;8530;49.540;8.576;2023-09-30T04:35:08;18.40;;;9.63;;
16826;SDS011;8530;49.540;8.576;2023-09-30T04:37:35;11.83;;;7.77;;
16826;SDS011;8530;49.540;8.576;2023-09-30T04:40:03;12.73;;;9.10;;
16826;SDS011;8530;49.540;8.576;2023-09-30T04:42:34;9.90;;;8.83;;
16826;SDS011;8530;49.540;8.576;2023-09-30T04:45:01;14.10;;;8.90;;
16826;SDS011;8530;49.540;8.576;2023-09-30T04:47:29;14.83;;;9.27;;
16826;SDS011;8530;49.540;8.576;2023-09-30T04:49:59;9.80;;;8.07;;
16826;SDS011;8530;49.540;8.576;2023-09-30T04:52:32;12.60;;;8.87;;
16826;SDS011;8530;49.540;8.576;2023-09-30T04:54:58;9.57;;;8.30;;
16826;SDS011;8530;49.540;8.576;2023-09-30T04:57:26;11.90;;;7.90;;
16826;SDS011;8530;49.540;8.576;2023-09-30T04:59:53;13.10;;;7.40;;
16826;SDS011;8530;49.540;8.576;2023-09-30T05:02:19;10.70;;;8.80;;
16826;SDS011;8530;49.540;8.576;2023-09-30T05:04:46;11.80;;;8.30;;
16826;SDS011;8530;49.540;8.576;2023-09-30T05:07:14;11.50;;;8.53;;
16826;SDS011;8530;49.540;8.576;2023-09-30T05:09:41;23.30;;;8.67;;
16826;SDS011;8530;49.540;8.576;2023-09-30T05:12:08;10.83;;;7.80;;
16826;SDS011;8530;49.540;8.576;2023-09-30T05:14:36;15.43;;;9.50;;
16826;SDS011;8530;49.540;8.576;2023-09-30T05:17:04;8.30;;;7.43;;
16826;SDS011;8530;49.540;8.576;2023-09-30T05:19:31;12.43;;;8.97;;
16826;SDS011;8530;49.540;8.576;2023-09-30T05:21:58;15.67;;;8.80;;
16826;SDS011;8530;49.540;8.576;2023-09-30T05:24:27;8.80;;;7.80;;
16826;SDS011;8530;49.540;8.576;2023-09-30T05:26:54;9.10;;;7.53;;
16826;SDS011;8530;49.540;8.576;2023-09-30T05:29:20;14.33;;;8.70;;
16826;SDS011;8530;49.540;8.576;2023-09-30T05:31:47;12.10;;;8.20;;
16826;SDS011;8530;49.540;8.576;2023-09-30T05:34:14;14.67;;;7.07;;
16826;SDS011;8530;49.540;8.576;2023-09-30T05:36:40;10.60;;;7.70;;
16826;SDS011;8530;49.540;8.576;2023-09-30T05:39:08;10.23;;;7.80;;
16826;SDS011;8530;49.540;8.576;2023-09-30T05:41:38;12.70;;;8.50;;
16826;SDS011;8530;49.540;8.576;2023-09-30T05:44:05;16.80;;;9.40;;
16826;SDS011;8530;49.540;8.576;2023-09-30T05:46:32;11.63;;;7.40;;
16826;SDS011;8530;49.540;8.576;2023-09-30T05:48:59;10.90;;;8.50;;
16826;SDS011;8530;49.540;8.576;2023-09-30T05:51:26;14.20;;;8.57;;
16826;SDS011;8530;49.540;8.576;2023-09-30T05:53:53;16.67;;;8.27;;
16826;SDS011;8530;49.540;8.576;2023-09-30T05:56:20;9.37;;;7.50;;
16826;SDS011;8530;49.540;8.576;2023-09-30T05:58:51;8.00;;;7.20;;
16826;SDS011;8530;49.540;8.576;2023-09-30T06:01:18;14.87;;;8.17;;
16826;SDS011;8530;49.540;8.576;2023-09-30T06:03:45;12.50;;;8.47;;
16826;SDS011;8530;49.540;8.576;2023-09-30T06:06:12;14.60;;;7.30;;
16826;SDS011;8530;49.540;8.576;2023-09-30T06:08:41;11.27;;;7.60;;
16826;SDS011;8530;49.540;8.576;2023-09-30T06:11:15;10.17;;;7.13;;
16826;SDS011;8530;49.540;8.576;2023-09-30T06:13:43;8.77;;;7.40;;
16826;SDS011;8530;49.540;8.576;2023-09-30T06:16:11;7.10;;;6.40;;
16826;SDS011;8530;49.540;8.576;2023-09-30T06:18:38;13.57;;;8.07;;
16826;SDS011;8530;49.540;8.576;2023-09-30T06:21:05;12.43;;;6.70;;
16826;SDS011;8530;49.540;8.576;2023-09-30T06:23:32;14.10;;;8.30;;
16826;SDS011;8530;49.540;8.576;2023-09-30T06:25:59;8.27;;;6.70;;
16826;SDS011;8530;49.540;8.576;2023-09-30T06:28:27;16.57;;;7.70;;
16826;SDS011;8530;49.540;8.576;2023-09-30T06:30:56;10.33;;;7.23;;
16826;SDS011;8530;49.540;8.576;2023-09-30T06:33:24;11.47;;;6.80;;
16826;SDS011;8530;49.540;8.576;2023-09-30T06:35:54;12.73;;;6.93;;
16826;SDS011;8530;49.540;8.576;2023-09-30T06:38:21;12.97;;;7.00;;
16826;SDS011;8530;49.540;8.576;2023-09-30T06:40:52;12.20;;;6.47;;
16826;SDS011;8530;49.540;8.576;2023-09-30T06:43:19;24.83;;;7.50;;
16826;SDS011;8530;49.540;8.576;2023-09-30T06:45:46;13.37;;;6.70;;
16826;SDS011;8530;49.540;8.576;2023-09-30T06:48:14;10.67;;;6.77;;
16826;SDS011;8530;49.540;8.576;2023-09-30T06:50:44;10.67;;;5.30;;
16826;SDS011;8530;49.540;8.576;2023-09-30T06:53:13;16.40;;;6.70;;
16826;SDS011;8530;49.540;8.576;2023-09-30T06:55:40;17.73;;;6.00;;
16826;SDS011;8530;49.540;8.576;2023-09-30T06:58:08;13.73;;;6.00;;
16826;SDS011;8530;49.540;8.576;2023-09-30T07:00:35;14.30;;;6.97;;
16826;SDS011;8530;49.540;8.576;2023-09-30T07:03:03;9.03;;;6.33;;
16826;SDS011;8530;49.540;8.576;2023-09-30T07:05:30;9.53;;;5.77;;
16826;SDS011;8530;49.540;8.576;2023-09-30T07:07:59;8.10;;;5.60;;
16826;SDS011;8530;49.540;8.576;2023-09-30T07:10:28;14.00;;;5.57;;
16826;SDS011;8530;49.540;8.576;2023-09-30T07:12:56;11.53;;;5.40;;
16826;SDS011;8530;49.540;8.576;2023-09-30T07:15:23;14.53;;;7.13;;
16826;SDS011;8530;49.540;8.576;2023-09-30T07:17:49;10.13;;;5.00;;
16826;SDS011;8530;49.540;8.576;2023-09-30T07:20:16;14.87;;;5.93;;
16826;SDS011;8530;49.540;8.576;2023-09-30T07:22:44;13.13;;;4.47;;
16826;SDS011;8530;49.540;8.576;2023-09-30T07:25:12;15.57;;;5.43;;
16826;SDS011;8530;49.540;8.576;2023-09-30T07:27:41;11.97;;;5.20;;
16826;SDS011;8530;49.540;8.576;2023-09-30T07:30:09;12.50;;;5.47;;
16826;SDS011;8530;49.540;8.576;2023-09-30T07:32:37;11.10;;;5.00;;
16826;SDS011;8530;49.540;8.576;2023-09-30T07:35:04;11.67;;;5.50;;
16826;SDS011;8530;49.540;8.576;2023-09-30T07:37:33;10.93;;;4.20;;
16826;SDS011;8530;49.540;8.576;2023-09-30T07:39:59;11.40;;;5.40;;
16826;SDS011;8530;49.540;8.576;2023-09-30T07:42:28;9.03;;;4.23;;
16826;SDS011;8530;49.540;8.576;2023-09-30T07:44:55;10.20;;;5.23;;
16826;SDS011;8530;49.540;8.576;2023-09-30T07:47:21;11.50;;;5.43;;
16826;SDS011;8530;49.540;8.576;2023-09-30T07:49:48;11.70;;;4.60;;
16826;SDS011;8530;49.540;8.576;2023-09-30T07:52:15;11.80;;;4.33;;
16826;SDS011;8530;49.540;8.576;2023-09-30T07:54:42;10.03;;;3.90;;
16826;SDS011;8530;49.540;8.576;2023-09-30T07:57:08;10.63;;;3.83;;
16826;SDS011;8530;49.540;8.576;2023-09-30T07:59:36;16.40;;;4.27;;
16826;SDS011;8530;49.540;8.576;2023-09-30T08:02:03;15.57;;;5.73;;
16826;SDS011;8530;49.540;8.576;2023-09-30T08:04:31;7.27;;;4.33;;
16826;SDS011;8530;49.540;8.576;2023-09-30T08:06:58;8.13;;;4.30;;
16826;SDS011;8530;49.540;8.576;2023-09-30T08:09:25;8.13;;;3.93;;
16826;SDS011;8530;49.540;8.576;2023-09-30T08:11:52;7.73;;;4.07;;
16826;SDS011;8530;49.540;8.576;2023-09-30T08:14:21;10.10;;;3.73;;
16826;SDS011;8530;49.540;8.576;2023-09-30T08:16:49;10.67;;;4.13;;
16826;SDS011;8530;49.540;8.576;2023-09-30T08:19:16;9.90;;;3.80;;
16826;SDS011;8530;49.540;8.576;2023-09-30T08:21:45;8.37;;;4.00;;
16826;SDS011;8530;49.540;8.576;2023-09-30T08:24:12;9.40;;;4.20;;
16826;SDS011;8530;49.540;8.576;2023-09-30T08:26:39;10.17;;;3.63;;
16826;SDS011;8530;49.540;8.576;2023-09-30T08:29:06;10.03;;;3.93;;
16826;SDS011;8530;49.540;8.576;2023-09-30T08:31:32;6.57;;;3.10;;
16826;SDS011;8530;49.540;8.576;2023-09-30T08:34:01;8.20;;;4.00;;
16826;SDS011;8530;49.540;8.576;2023-09-30T08:36:29;10.23;;;3.33;;
16826;SDS011;8530;49.540;8.576;2023-09-30T08:38:56;9.00;;;3.00;;
16826;SDS011;8530;49.540;8.576;2023-09-30T08:41:29;9.63;;;3.63;;
16826;SDS011;8530;49.540;8.576;2023-09-30T08:43:59;11.03;;;3.93;;
16826;SDS011;8530;49.540;8.576;2023-09-30T08:46:28;10.40;;;4.03;;
16826;SDS011;8530;49.540;8.576;2023-09-30T08:48:57;12.13;;;4.43;;
16826;SDS011;8530;49.540;8.576;2023-09-30T08:51:27;11.10;;;4.57;;
16826;SDS011;8530;49.540;8.576;2023-09-30T08:53:55;9.40;;;4.07;;
16826;SDS011;8530;49.540;8.576;2023-09-30T08:56:24;7.20;;;3.53;;
16826;SDS011;8530;49.540;8.576;2023-09-30T08:58:53;10.90;;;4.00;;
16826;SDS011;8530;49.540;8.576;2023-09-30T09:01:22;8.87;;;4.70;;
16826;SDS011;8530;49.540;8.576;2023-09-30T09:03:49;10.93;;;4.40;;
16826;SDS011;8530;49.540;8.576;2023-09-30T09:06:17;9.90;;;4.70;;
16826;SDS011;8530;49.540;8.576;2023-09-30T09:08:46;8.13;;;4.03;;
16826;SDS011;8530;49.540;8.576;2023-09-30T09:11:13;9.17;;;4.37;;
16826;SDS011;8530;49.540;8.576;2023-09-30T09:13:47;11.93;;;4.13;;
16826;SDS011;8530;49.540;8.576;2023-09-30T09:16:15;8.10;;;4.50;;
16826;SDS011;8530;49.540;8.576;2023-09-30T09:18:44;10.13;;;5.30;;
16826;SDS011;8530;49.540;8.576;2023-09-30T09:21:11;11.13;;;4.23;;
16826;SDS011;8530;49.540;8.576;2023-09-30T09:23:40;8.77;;;3.60;;
16826;SDS011;8530;49.540;8.576;2023-09-30T09:26:10;8.70;;;4.63;;
16826;SDS011;8530;49.540;8.576;2023-09-30T09:28:37;8.97;;;4.20;;
16826;SDS011;8530;49.540;8.576;2023-09-30T09:31:20;6.70;;;3.77;;
16826;SDS011;8530;49.540;8.576;2023-09-30T09:33:48;10.83;;;5.33;;
16826;SDS011;8530;49.540;8.576;2023-09-30T09:36:16;8.00;;;3.83;;
16826;SDS011;8530;49.540;8.576;2023-09-30T09:38:45;8.33;;;4.10;;
16826;SDS011;8530;49.540;8.576;2023-09-30T09:41:14;10.77;;;4.73;;
16826;SDS011;8530;49.540;8.576;2023-09-30T09:43:42;16.80;;;6.03;;
16826;SDS011;8530;49.540;8.576;2023-09-30T09:46:10;9.80;;;4.70;;
16826;SDS011;8530;49.540;8.576;2023-09-30T09:48:37;11.60;;;4.23;;
16826;SDS011;8530;49.540;8.576;2023-09-30T09:51:04;9.73;;;4.70;;
16826;SDS011;8530;49.540;8.576;2023-09-30T09:53:34;9.63;;;4.70;;
16826;SDS011;8530;49.540;8.576;2023-09-30T09:56:02;12.03;;;5.80;;
16826;SDS011;8530;49.540;8.576;2023-09-30T09:58:33;10.37;;;4.20;;
16826;SDS011;8530;49.540;8.576;2023-09-30T10:01:01;10.20;;;4.27;;
16826;SDS011;8530;49.540;8.576;2023-09-30T10:03:28;7.93;;;4.13;;
16826;SDS011;8530;49.540;8.576;2023-09-30T10:05:55;11.03;;;4.33;;
16826;SDS011;8530;49.540;8.576;2023-09-30T10:08:27;14.87;;;5.30;;
16826;SDS011;8530;49.540;8.576;2023-09-30T10:10:57;14.77;;;5.27;;
16826;SDS011;8530;49.540;8.576;2023-09-30T10:19:16;9.43;;;4.53;;
16826;SDS011;8530;49.540;8.576;2023-09-30T10:24:44;11.40;;;4.67;;
16826;SDS011;8530;49.540;8.576;2023-09-30T10:30:13;12.07;;;4.60;;
16826;SDS011;8530;49.540;8.576;2023-09-30T10:35:46;12.00;;;5.20;;
16826;SDS011;8530;49.540;8.576;2023-09-30T10:41:08;9.27;;;5.30;;
16826;SDS011;8530;49.540;8.576;2023-09-30T10:43:37;10.73;;;5.07;;
16826;SDS011;8530;49.540;8.576;2023-09-30T10:49:16;10.80;;;4.80;;
16826;SDS011;8530;49.540;8.576;2023-09-30T10:51:58;8.90;;;4.90;;
16826;SDS011;8530;49.540;8.576;2023-09-30T10:54:26;9.50;;;5.40;;
16826;SDS011;8530;49.540;8.576;2023-09-30T10:56:54;10.37;;;4.90;;
16826;SDS011;8530;49.540;8.576;2023-09-30T10:59:24;10.07;;;4.63;;
16826;SDS011;8530;49.540;8.576;2023-09-30T11:01:53;8.50;;;3.93;;
16826;SDS011;8530;49.540;8.576;2023-09-30T11:04:20;8.30;;;4.17;;
16826;SDS011;8530;49.540;8.576;2023-09-30T11:06:46;10.00;;;5.37;;
16826;SDS011;8530;49.540;8.576;2023-09-30T11:09:17;10.80;;;5.00;;
16826;SDS011;8530;49.540;8.576;2023-09-30T11:11:45;10.30;;;5.53;;
16826;SDS011;8530;49.540;8.576;2023-09-30T11:14:21;8.50;;;5.30;;
16826;SDS011;8530;49.540;8.576;2023-09-30T11:16:49;10.73;;;5.13;;
16826;SDS011;8530;49.540;8.576;2023-09-30T11:19:18;10.83;;;5.87;;
16826;SDS011;8530;49.540;8.576;2023-09-30T11:21:46;12.50;;;5.33;;
16826;SDS011;8530;49.540;8.576;2023-09-30T11:24:14;10.90;;;5.10;;
16826;SDS011;8530;49.540;8.576;2023-09-30T11:26:41;9.50;;;4.63;;
16826;SDS011;8530;49.540;8.576;2023-09-30T11:29:09;10.90;;;5.53;;
16826;SDS011;8530;49.540;8.576;2023-09-30T11:31:37;9.30;;;4.50;;
16826;SDS011;8530;49.540;8.576;2023-09-30T11:34:04;11.03;;;5.30;;
16826;SDS011;8530;49.540;8.576;2023-09-30T11:36:35;11.47;;;5.70;;
16826;SDS011;8530;49.540;8.576;2023-09-30T11:39:04;11.63;;;5.77;;
16826;SDS011;8530;49.540;8.576;2023-09-30T11:41:34;11.40;;;6.40;;
16826;SDS011;8530;49.540;8.576;2023-09-30T11:44:03;11.33;;;4.20;;
16826;SDS011;8530;49.540;8.576;2023-09-30T11:46:32;10.23;;;4.63;;
16826;SDS011;8530;49.540;8.576;2023-09-30T11:49:12;10.03;;;5.73;;
16826;SDS011;8530;49.540;8.576;2023-09-30T11:51:43;9.60;;;4.70;;
16826;SDS011;8530;49.540;8.576;2023-09-30T11:54:11;8.90;;;4.43;;
16826;SDS011;8530;49.540;8.576;2023-09-30T11:56:39;10.47;;;5.23;;
16826;SDS011;8530;49.540;8.576;2023-09-30T11:59:07;8.97;;;4.40;;
16826;SDS011;8530;49.540;8.576;2023-09-30T12:01:35;6.90;;;4.73;;
16826;SDS011;8530;49.540;8.576;2023-09-30T12:04:02;8.40;;;5.30;;
16826;SDS011;8530;49.540;8.576;2023-09-30T12:06:29;11.43;;;4.97;;
16826;SDS011;8530;49.540;8.576;2023-09-30T12:08:58;13.80;;;5.93;;
16826;SDS011;8530;49.540;8.576;2023-09-30T12:11:24;10.23;;;5.40;;
16826;SDS011;8530;49.540;8.576;2023-09-30T12:13:51;10.17;;;5.40;;
16826;SDS011;8530;49.540;8.576;2023-09-30T12:16:18;8.70;;;5.17;;
16826;SDS011;8530;49.540;8.576;2023-09-30T12:18:46;17.03;;;5.70;;
16826;SDS011;8530;49.540;8.576;2023-09-30T12:21:13;15.03;;;6.70;;
16826;SDS011;8530;49.540;8.576;2023-09-30T12:23:45;11.77;;;5.53;;
16826;SDS011;8530;49.540;8.576;2023-09-30T12:26:15;9.77;;;6.13;;
16826;SDS011;8530;49.540;8.576;2023-09-30T12:28:42;12.47;;;5.23;;
16826;SDS011;8530;49.540;8.576;2023-09-30T12:31:09;17.27;;;8.40;;
16826;SDS011;8530;49.540;8.576;2023-09-30T12:33:46;11.47;;;6.53;;
16826;SDS011;8530;49.540;8.576;2023-09-30T12:36:15;10.80;;;5.77;;
16826;SDS011;8530;49.540;8.576;2023-09-30T12:38:42;11.20;;;6.20;;
16826;SDS011;8530;49.540;8.576;2023-09-30T12:41:09;11.97;;;5.33;;
16826;SDS011;8530;49.540;8.576;2023-09-30T12:43:38;8.90;;;4.63;;
16826;SDS011;8530;49.540;8.576;2023-09-30T12:46:06;9.40;;;5.30;;
16826;SDS011;8530;49.540;8.576;2023-09-30T12:48:33;9.63;;;6.00;;
16826;SDS011;8530;49.540;8.576;2023-09-30T12:51:00;11.23;;;5.83;;
16826;SDS011;8530;49.540;8.576;2023-09-30T12:53:29;8.97;;;4.70;;
16826;SDS011;8530;49.540;8.576;2023-09-30T12:55:56;14.07;;;5.00;;
16826;SDS011;8530;49.540;8.576;2023-09-30T12:58:22;12.70;;;5.50;;
16826;SDS011;8530;49.540;8.576;2023-09-30T13:00:50;14.80;;;6.27;;
16826;SDS011;8530;49.540;8.576;2023-09-30T13:03:19;13.13;;;6.20;;
16826;SDS011;8530;49.540;8.576;2023-09-30T13:05:45;9.53;;;5.17;;
16826;SDS011;8530;49.540;8.576;2023-09-30T13:08:12;11.80;;;6.07;;
16826;SDS011;8530;49.540;8.576;2023-09-30T13:10:39;11.10;;;6.30;;
16826;SDS011;8530;49.540;8.576;2023-09-30T13:13:05;10.50;;;5.30;;
16826;SDS011;8530;49.540;8.576;2023-09-30T13:15:32;14.03;;;5.40;;
16826;SDS011;8530;49.540;8.576;2023-09-30T13:18:00;13.90;;;5.57;;
16826;SDS011;8530;49.540;8.576;2023-09-30T13:20:28;9.17;;;5.10;;
16826;SDS011;8530;49.540;8.576;2023-09-30T13:22:55;10.87;;;5.30;;
16826;SDS011;8530;49.540;8.576;2023-09-30T13:25:22;10.10;;;5.90;;
16826;SDS011;8530;49.540;8.576;2023-09-30T13:27:49;8.70;;;5.43;;
16826;SDS011;8530;49.540;8.576;2023-09-30T13:30:15;9.77;;;4.80;;
16826;SDS011;8530;49.540;8.576;2023-09-30T13:32:42;11.53;;;4.30;;
16826;SDS011;8530;49.540;8.576;2023-09-30T13:35:12;10.87;;;4.87;;
16826;SDS011;8530;49.540;8.576;2023-09-30T13:37:38;8.77;;;5.40;;
16826;SDS011;8530;49.540;8.576;2023-09-30T13:40:05;12.00;;;5.90;;
16826;SDS011;8530;49.540;8.576;2023-09-30T13:42:36;16.47;;;6.83;;
16826;SDS011;8530;49.540;8.576;2023-09-30T13:45:03;13.70;;;5.57;;
16826;SDS011;8530;49.540;8.576;2023-09-30T13:47:31;12.63;;;5.40;;
16826;SDS011;8530;49.540;8.576;2023-09-30T13:49:58;12.30;;;6.47;;
16826;SDS011;8530;49.540;8.576;2023-09-30T13:52:26;10.30;;;6.03;;
16826;SDS011;8530;49.540;8.576;2023-09-30T13:54:53;11.83;;;6.03;;
16826;SDS011;8530;49.540;8.576;2023-09-30T13:57:20;10.97;;;5.93;;
16826;SDS011;8530;49.540;8.576;2023-09-30T13:59:47;12.13;;;4.63;;
16826;SDS011;8530;49.540;8.576;2023-09-30T14:02:14;9.83;;;5.53;;
16826;SDS011;8530;49.540;8.576;2023-09-30T14:04:40;10.93;;;5.53;;
16826;SDS011;8530;49.540;8.576;2023-09-30T14:07:07;12.67;;;5.13;;
16826;SDS011;8530;49.540;8.576;2023-09-30T14:09:35;7.97;;;4.80;;
16826;SDS011;8530;49.540;8.576;2023-09-30T14:12:02;12.07;;;5.63;;
16826;SDS011;8530;49.540;8.576;2023-09-30T14:14:30;14.33;;;6.23;;
16826;SDS011;8530;49.540;8.576;2023-09-30T14:16:59;7.77;;;4.37;;
16826;SDS011;8530;49.540;8.576;2023-09-30T14:19:32;9.63;;;5.37;;
16826;SDS011;8530;49.540;8.576;2023-09-30T14:21:58;13.37;;;4.90;;
16826;SDS011;8530;49.540;8.576;2023-09-30T14:24:26;15.17;;;5.67;;
16826;SDS011;8530;49.540;8.576;2023-09-30T14:26:54;10.20;;;4.70;;
16826;SDS011;8530;49.540;8.576;2023-09-30T14:29:21;10.87;;;5.43;;
16826;SDS011;8530;49.540;8.576;2023-09-30T14:31:49;10.77;;;4.73;;
16826;SDS011;8530;49.540;8.576;2023-09-30T14:34:16;8.73;;;4.60;;
16826;SDS011;8530;49.540;8.576;2023-09-30T14:36:43;12.03;;;5.80;;
16826;SDS011;8530;49.540;8.576;2023-09-30T14:39:10;9.40;;;5.23;;
16826;SDS011;8530;49.540;8.576;2023-09-30T14:41:36;9.83;;;5.10;;
16826;SDS011;8530;49.540;8.576;2023-09-30T14:44:05;13.43;;;4.70;;
16826;SDS011;8530;49.540;8.576;2023-09-30T14:46:32;13.37;;;6.30;;
16826;SDS011;8530;49.540;8.576;2023-09-30T14:48:59;10.17;;;5.20;;
16826;SDS011;8530;49.540;8.576;2023-09-30T14:51:26;11.67;;;5.67;;
16826;SDS011;8530;49.540;8.576;2023-09-30T14:53:53;9.53;;;5.50;;
16826;SDS011;8530;49.540;8.576;2023-09-30T14:56:20;15.00;;;6.00;;
16826;SDS011;8530;49.540;8.576;2023-09-30T14:58:47;12.27;;;5.83;;
16826;SDS011;8530;49.540;8.576;2023-09-30T15:01:15;7.63;;;5.00;;
16826;SDS011;8530;49.540;8.576;2023-09-30T15:03:42;9.40;;;4.83;;
16826;SDS011;8530;49.540;8.576;2023-09-30T15:06:09;9.93;;;5.83;;
16826;SDS011;8530;49.540;8.576;2023-09-30T15:08:36;7.80;;;5.13;;
16826;SDS011;8530;49.540;8.576;2023-09-30T15:11:02;11.83;;;7.00;;
16826;SDS011;8530;49.540;8.576;2023-09-30T15:13:29;10.60;;;7.10;;
16826;SDS011;8530;49.540;8.576;2023-09-30T15:15:56;10.23;;;5.60;;
16826;SDS011;8530;49.540;8.576;2023-09-30T15:18:24;8.70;;;6.10;;
16826;SDS011;8530;49.540;8.576;2023-09-30T15:20:51;15.40;;;6.87;;